OVO685 KDEN-KATL
Flight info
| Callsign | OVO685 |
|---|---|
| Flight time | 2h 19m |
| Altitude | 39000 |
| Route | EPKEE7 GAETR KIRKE LUKKY HUTCC KNSAW RUSSA GLAVN2 |
| Aircraft | A333/H-SDE3GHIJ2J3J5M1RVWXY/LB2D1 |
Departure
| Time | 2026-05-04 05:14 |
|---|---|
| Airport | Denver International Airport (KDEN) |
Arrival
| Time | 2026-05-04 07:33 |
|---|---|
| Airport | Hartsfield Jackson Atlanta International Airport (KATL) |
| Time | Latitude | Longitude | Altitude | Speed | Heading |
|---|---|---|---|---|---|
| 2026-05-04 04:27 | 39.85803 | -104.67196 | 5387 ft | 0 kts | 0° |
| 2026-05-04 04:33 | 39.85802 | -104.67196 | 5386 ft | 2 kts | 0° |
| 2026-05-04 04:33 | 39.85781 | -104.67202 | 5383 ft | 4 kts | 13° |
| 2026-05-04 04:33 | 39.85756 | -104.67208 | 5387 ft | 4 kts | 16° |
| 2026-05-04 04:33 | 39.85737 | -104.67226 | 5382 ft | 4 kts | 64° |
| 2026-05-04 04:34 | 39.85730 | -104.67255 | 5384 ft | 2 kts | 89° |
| 2026-05-04 04:34 | 39.85730 | -104.67262 | 5384 ft | 0 kts | 89° |
| 2026-05-04 04:37 | 39.85732 | -104.67114 | 5388 ft | 12 kts | 89° |
| 2026-05-04 04:37 | 39.85732 | -104.66984 | 5390 ft | 17 kts | 91° |
| 2026-05-04 04:38 | 39.85697 | -104.66829 | 5389 ft | 18 kts | 131° |
| 2026-05-04 04:38 | 39.85659 | -104.66685 | 5390 ft | 17 kts | 91° |
| 2026-05-04 04:38 | 39.85672 | -104.66530 | 5384 ft | 17 kts | 79° |
| 2026-05-04 04:38 | 39.85678 | -104.66388 | 5386 ft | 14 kts | 88° |
| 2026-05-04 04:39 | 39.85684 | -104.66279 | 5393 ft | 13 kts | 71° |
| 2026-05-04 04:39 | 39.85778 | -104.66236 | 5392 ft | 18 kts | 1° |
| 2026-05-04 04:39 | 39.85905 | -104.66231 | 5387 ft | 19 kts | 0° |
| 2026-05-04 04:39 | 39.86041 | -104.66230 | 5388 ft | 20 kts | 0° |
| 2026-05-04 04:40 | 39.86186 | -104.66229 | 5389 ft | 21 kts | 0° |
| 2026-05-04 04:40 | 39.86340 | -104.66229 | 5385 ft | 22 kts | 360° |
| 2026-05-04 04:40 | 39.86485 | -104.66230 | 5389 ft | 19 kts | 360° |
| 2026-05-04 04:40 | 39.86618 | -104.66227 | 5387 ft | 20 kts | 1° |
| 2026-05-04 04:41 | 39.86760 | -104.66224 | 5380 ft | 21 kts | 0° |
| 2026-05-04 04:41 | 39.86912 | -104.66223 | 5376 ft | 23 kts | 0° |
| 2026-05-04 04:41 | 39.87073 | -104.66222 | 5370 ft | 24 kts | 0° |
| 2026-05-04 04:41 | 39.87241 | -104.66220 | 5367 ft | 24 kts | 1° |
| 2026-05-04 04:42 | 39.87408 | -104.66216 | 5366 ft | 24 kts | 2° |
| 2026-05-04 04:42 | 39.87569 | -104.66213 | 5364 ft | 22 kts | 0° |
| 2026-05-04 04:42 | 39.87633 | -104.66212 | 5363 ft | 0 kts | 360° |
| 2026-05-04 05:12 | 39.87637 | -104.66212 | 5380 ft | 3 kts | 360° |
| 2026-05-04 05:12 | 39.87675 | -104.66212 | 5363 ft | 8 kts | 0° |
| 2026-05-04 05:12 | 39.87714 | -104.66208 | 5363 ft | 9 kts | 11° |
| 2026-05-04 05:12 | 39.87754 | -104.66151 | 5362 ft | 9 kts | 76° |
| 2026-05-04 05:13 | 39.87754 | -104.66007 | 5360 ft | 34 kts | 90° |
| 2026-05-04 05:13 | 39.87749 | -104.65408 | 5358 ft | 96 kts | 91° |
| 2026-05-04 05:13 | 39.87741 | -104.64278 | 5338 ft | 153 kts | 91° |
| 2026-05-04 05:13 | 39.87721 | -104.62667 | 5405 ft | 197 kts | 94° |
| 2026-05-04 05:14 | 39.87686 | -104.60880 | 6357 ft | 197 kts | 91° |
| 2026-05-04 05:14 | 39.87526 | -104.59115 | 7149 ft | 199 kts | 107° |
| 2026-05-04 05:14 | 39.87035 | -104.57357 | 7558 ft | 216 kts | 115° |
| 2026-05-04 05:14 | 39.86396 | -104.55476 | 7846 ft | 238 kts | 115° |
| 2026-05-04 05:15 | 39.85691 | -104.53423 | 8095 ft | 260 kts | 115° |
| 2026-05-04 05:15 | 39.84927 | -104.51163 | 8300 ft | 284 kts | 114° |
| 2026-05-04 05:15 | 39.84117 | -104.48731 | 8705 ft | 299 kts | 114° |
| 2026-05-04 05:15 | 39.83285 | -104.46217 | 9295 ft | 306 kts | 113° |
| 2026-05-04 05:16 | 39.82436 | -104.43648 | 9812 ft | 310 kts | 113° |
| 2026-05-04 05:16 | 39.81581 | -104.41060 | 9971 ft | 312 kts | 113° |
| 2026-05-04 05:16 | 39.80698 | -104.38440 | 10030 ft | 326 kts | 114° |
| 2026-05-04 05:16 | 39.79743 | -104.35673 | 10265 ft | 345 kts | 114° |
| 2026-05-04 05:17 | 39.78730 | -104.32757 | 10558 ft | 361 kts | 114° |
| 2026-05-04 05:17 | 39.77683 | -104.29745 | 11091 ft | 369 kts | 114° |
| 2026-05-04 05:17 | 39.76619 | -104.26686 | 11731 ft | 374 kts | 114° |
| 2026-05-04 05:17 | 39.75557 | -104.23636 | 12368 ft | 377 kts | 114° |
| 2026-05-04 05:18 | 39.74468 | -104.20513 | 13038 ft | 380 kts | 114° |
| 2026-05-04 05:18 | 39.73223 | -104.16945 | 13813 ft | 383 kts | 114° |
| 2026-05-04 05:18 | 39.72114 | -104.13783 | 14371 ft | 387 kts | 114° |
| 2026-05-04 05:19 | 39.70985 | -104.10585 | 14909 ft | 392 kts | 114° |
| 2026-05-04 05:19 | 39.69842 | -104.07356 | 15457 ft | 396 kts | 115° |
| 2026-05-04 05:19 | 39.68687 | -104.04096 | 16052 ft | 399 kts | 115° |
| 2026-05-04 05:19 | 39.67520 | -104.00808 | 16617 ft | 403 kts | 115° |
| 2026-05-04 05:20 | 39.66340 | -103.97485 | 17201 ft | 407 kts | 115° |
| 2026-05-04 05:20 | 39.65108 | -103.94167 | 17761 ft | 410 kts | 118° |
| 2026-05-04 05:20 | 39.63776 | -103.90872 | 18291 ft | 414 kts | 119° |
| 2026-05-04 05:20 | 39.62416 | -103.87563 | 18766 ft | 417 kts | 119° |
| 2026-05-04 05:21 | 39.61045 | -103.84235 | 19278 ft | 419 kts | 119° |
| 2026-05-04 05:21 | 39.59690 | -103.80875 | 19773 ft | 422 kts | 116° |
| 2026-05-04 05:21 | 39.58543 | -103.77350 | 20263 ft | 426 kts | 111° |
| 2026-05-04 05:21 | 39.57509 | -103.73743 | 20738 ft | 429 kts | 111° |
| 2026-05-04 05:22 | 39.56487 | -103.70096 | 21196 ft | 432 kts | 110° |
| 2026-05-04 05:22 | 39.55456 | -103.66424 | 21665 ft | 435 kts | 111° |
| 2026-05-04 05:22 | 39.54415 | -103.62729 | 22116 ft | 438 kts | 111° |
| 2026-05-04 05:22 | 39.53364 | -103.59010 | 22563 ft | 441 kts | 111° |
| 2026-05-04 05:23 | 39.52305 | -103.55273 | 22985 ft | 444 kts | 111° |
| 2026-05-04 05:23 | 39.51236 | -103.51508 | 23420 ft | 447 kts | 111° |
| 2026-05-04 05:23 | 39.50158 | -103.47719 | 23746 ft | 451 kts | 111° |
| 2026-05-04 05:23 | 39.49068 | -103.43890 | 24019 ft | 455 kts | 111° |
| 2026-05-04 05:24 | 39.47967 | -103.40032 | 24371 ft | 458 kts | 111° |
| 2026-05-04 05:24 | 39.46874 | -103.36208 | 24717 ft | 460 kts | 110° |
| 2026-05-04 05:24 | 39.45746 | -103.32267 | 25082 ft | 462 kts | 110° |
| 2026-05-04 05:24 | 39.44641 | -103.28410 | 25418 ft | 465 kts | 110° |
| 2026-05-04 05:25 | 39.43513 | -103.24479 | 25750 ft | 467 kts | 110° |
| 2026-05-04 05:25 | 39.42377 | -103.20529 | 26091 ft | 470 kts | 110° |
| 2026-05-04 05:25 | 39.41233 | -103.16555 | 26423 ft | 473 kts | 110° |
| 2026-05-04 05:25 | 39.40083 | -103.12566 | 26752 ft | 475 kts | 110° |
| 2026-05-04 05:26 | 39.38926 | -103.08559 | 27101 ft | 477 kts | 110° |
| 2026-05-04 05:26 | 39.37762 | -103.04535 | 27436 ft | 479 kts | 110° |
| 2026-05-04 05:26 | 39.36590 | -103.00490 | 27750 ft | 482 kts | 110° |
| 2026-05-04 05:26 | 39.35452 | -102.96404 | 28069 ft | 485 kts | 107° |
| 2026-05-04 05:27 | 39.34662 | -102.92162 | 28392 ft | 486 kts | 99° |
| 2026-05-04 05:28 | 39.30905 | -102.61535 | 30571 ft | 500 kts | 98° |
| 2026-05-04 05:29 | 39.30354 | -102.57094 | 30841 ft | 502 kts | 98° |
| 2026-05-04 05:29 | 39.29799 | -102.52627 | 31117 ft | 504 kts | 98° |
| 2026-05-04 05:29 | 39.29240 | -102.48148 | 31391 ft | 506 kts | 98° |
| 2026-05-04 05:29 | 39.28684 | -102.43714 | 31660 ft | 508 kts | 98° |
| 2026-05-04 05:31 | 39.24693 | -102.12259 | 33895 ft | 506 kts | 98° |
| 2026-05-04 05:31 | 39.24118 | -102.07781 | 34139 ft | 506 kts | 98° |
| 2026-05-04 05:32 | 39.23540 | -102.03296 | 34371 ft | 507 kts | 98° |
| 2026-05-04 05:32 | 39.22959 | -101.98804 | 34583 ft | 509 kts | 98° |
| 2026-05-04 05:32 | 39.22375 | -101.94303 | 34797 ft | 509 kts | 98° |
| 2026-05-04 05:33 | 39.21201 | -101.85287 | 35254 ft | 510 kts | 98° |
| 2026-05-04 05:33 | 39.20609 | -101.80771 | 35465 ft | 511 kts | 98° |
| 2026-05-04 05:33 | 39.20016 | -101.76256 | 35664 ft | 511 kts | 98° |
| 2026-05-04 05:33 | 39.19422 | -101.71743 | 35865 ft | 511 kts | 98° |
| 2026-05-04 05:34 | 39.18823 | -101.67216 | 36081 ft | 512 kts | 98° |
| 2026-05-04 05:34 | 39.18224 | -101.62695 | 36294 ft | 512 kts | 98° |
| 2026-05-04 05:34 | 39.17622 | -101.58168 | 36485 ft | 513 kts | 98° |
| 2026-05-04 05:34 | 39.17017 | -101.53636 | 36663 ft | 513 kts | 98° |
| 2026-05-04 05:35 | 39.16411 | -101.49101 | 36845 ft | 514 kts | 99° |
| 2026-05-04 05:35 | 39.15802 | -101.44566 | 37035 ft | 514 kts | 99° |
| 2026-05-04 05:35 | 39.15191 | -101.40025 | 37202 ft | 515 kts | 99° |
| 2026-05-04 05:35 | 39.14577 | -101.35481 | 37381 ft | 515 kts | 99° |
| 2026-05-04 05:36 | 39.13962 | -101.30938 | 37551 ft | 515 kts | 99° |
| 2026-05-04 05:36 | 39.13344 | -101.26387 | 37755 ft | 516 kts | 99° |
| 2026-05-04 05:36 | 39.12725 | -101.21845 | 37948 ft | 516 kts | 99° |
| 2026-05-04 05:36 | 39.12104 | -101.17299 | 38101 ft | 516 kts | 99° |
| 2026-05-04 05:37 | 39.11480 | -101.12751 | 38293 ft | 516 kts | 99° |
| 2026-05-04 05:37 | 39.10862 | -101.08257 | 38455 ft | 517 kts | 99° |
| 2026-05-04 05:37 | 39.10234 | -101.03703 | 38597 ft | 517 kts | 99° |
| 2026-05-04 05:38 | 39.08970 | -100.94589 | 38829 ft | 518 kts | 100° |
| 2026-05-04 05:38 | 39.08106 | -100.90086 | 38858 ft | 519 kts | 109° |
| 2026-05-04 05:38 | 39.05255 | -100.81576 | 38851 ft | 518 kts | 117° |
| 2026-05-04 05:39 | 39.00403 | -100.69130 | 38838 ft | 519 kts | 118° |
| 2026-05-04 05:40 | 38.95545 | -100.56688 | 38840 ft | 519 kts | 117° |
| 2026-05-04 05:40 | 38.92327 | -100.48370 | 38798 ft | 520 kts | 117° |
| 2026-05-04 05:41 | 38.89105 | -100.40046 | 38779 ft | 521 kts | 117° |
| 2026-05-04 05:41 | 38.85868 | -100.31711 | 38783 ft | 523 kts | 117° |
| 2026-05-04 05:42 | 38.82611 | -100.23347 | 38779 ft | 524 kts | 117° |
| 2026-05-04 05:42 | 38.79344 | -100.14986 | 38776 ft | 525 kts | 117° |
| 2026-05-04 05:43 | 38.76070 | -100.06626 | 38768 ft | 525 kts | 117° |
| 2026-05-04 05:45 | 38.62932 | -99.73318 | 38774 ft | 524 kts | 118° |
| 2026-05-04 05:47 | 38.49703 | -99.40137 | 38762 ft | 522 kts | 118° |
| 2026-05-04 05:47 | 38.46398 | -99.31902 | 38768 ft | 521 kts | 118° |
| 2026-05-04 05:48 | 38.43089 | -99.23678 | 38772 ft | 521 kts | 118° |
| 2026-05-04 05:48 | 38.39774 | -99.15464 | 38776 ft | 521 kts | 118° |
| 2026-05-04 05:49 | 38.36455 | -99.07260 | 38791 ft | 521 kts | 119° |
| 2026-05-04 05:49 | 38.33134 | -98.99074 | 38801 ft | 519 kts | 119° |
| 2026-05-04 05:51 | 38.19776 | -98.66360 | 38784 ft | 523 kts | 118° |
| 2026-05-04 05:52 | 38.16406 | -98.58160 | 38769 ft | 523 kts | 119° |
| 2026-05-04 05:52 | 38.13033 | -98.49974 | 38756 ft | 523 kts | 119° |
| 2026-05-04 05:54 | 38.02773 | -98.15524 | 38787 ft | 522 kts | 107° |
| 2026-05-04 05:55 | 38.00576 | -98.06746 | 38803 ft | 522 kts | 108° |
| 2026-05-04 05:55 | 37.98358 | -97.97977 | 38814 ft | 522 kts | 108° |
| 2026-05-04 05:56 | 37.96131 | -97.89227 | 38767 ft | 521 kts | 108° |
| 2026-05-04 05:56 | 37.93902 | -97.80501 | 38765 ft | 521 kts | 108° |
| 2026-05-04 05:57 | 37.92044 | -97.73247 | 38778 ft | 522 kts | 108° |
| 2026-05-04 05:57 | 37.89795 | -97.64495 | 38783 ft | 523 kts | 108° |
| 2026-05-04 05:58 | 37.87538 | -97.55739 | 38797 ft | 523 kts | 108° |
| 2026-05-04 05:58 | 37.85278 | -97.47007 | 38815 ft | 522 kts | 108° |
| 2026-05-04 05:59 | 37.83013 | -97.38286 | 38839 ft | 522 kts | 108° |
| 2026-05-04 05:59 | 37.80743 | -97.29576 | 38851 ft | 522 kts | 108° |
| 2026-05-04 06:00 | 37.78465 | -97.20866 | 38851 ft | 522 kts | 108° |
| 2026-05-04 06:00 | 37.76196 | -97.12216 | 38851 ft | 522 kts | 108° |
| 2026-05-04 06:01 | 37.73905 | -97.03516 | 38817 ft | 522 kts | 108° |
| 2026-05-04 06:03 | 37.64642 | -96.68630 | 38854 ft | 523 kts | 109° |
| 2026-05-04 06:05 | 37.54101 | -96.29494 | 38835 ft | 525 kts | 109° |
| 2026-05-04 06:06 | 37.51732 | -96.20781 | 38851 ft | 527 kts | 109° |
| 2026-05-04 06:06 | 37.49368 | -96.12111 | 38851 ft | 527 kts | 109° |
| 2026-05-04 06:07 | 37.46984 | -96.03394 | 38854 ft | 527 kts | 109° |
| 2026-05-04 06:07 | 37.44590 | -95.94671 | 38852 ft | 527 kts | 109° |
| 2026-05-04 06:08 | 37.42192 | -95.85961 | 38853 ft | 527 kts | 109° |
| 2026-05-04 06:08 | 37.39786 | -95.77253 | 38856 ft | 527 kts | 109° |
| 2026-05-04 06:09 | 37.37373 | -95.68549 | 38866 ft | 527 kts | 109° |
| 2026-05-04 06:11 | 37.27648 | -95.33747 | 38892 ft | 528 kts | 110° |
| 2026-05-04 06:13 | 37.17803 | -94.98972 | 38894 ft | 529 kts | 110° |
| 2026-05-04 06:14 | 37.09118 | -94.68671 | 38916 ft | 529 kts | 110° |
| 2026-05-04 06:15 | 37.06616 | -94.60003 | 38921 ft | 529 kts | 110° |
| 2026-05-04 06:15 | 37.04105 | -94.51335 | 38924 ft | 529 kts | 110° |
| 2026-05-04 06:16 | 37.01592 | -94.42683 | 38920 ft | 529 kts | 110° |
| 2026-05-04 06:16 | 36.99070 | -94.34031 | 38917 ft | 529 kts | 110° |
| 2026-05-04 06:17 | 36.96544 | -94.25392 | 38933 ft | 529 kts | 110° |
| 2026-05-04 06:17 | 36.94010 | -94.16756 | 38953 ft | 529 kts | 111° |
| 2026-05-04 06:18 | 36.91474 | -94.08137 | 38931 ft | 528 kts | 111° |
| 2026-05-04 06:20 | 36.81241 | -93.73631 | 38936 ft | 529 kts | 111° |
| 2026-05-04 06:21 | 36.74816 | -93.52185 | 38952 ft | 528 kts | 111° |
| 2026-05-04 06:22 | 36.72234 | -93.43609 | 38954 ft | 528 kts | 111° |
| 2026-05-04 06:25 | 36.53958 | -92.83643 | 38956 ft | 529 kts | 111° |
| 2026-05-04 06:26 | 36.51324 | -92.75100 | 38966 ft | 529 kts | 111° |
| 2026-05-04 06:26 | 36.48682 | -92.66560 | 38976 ft | 529 kts | 111° |
| 2026-05-04 06:27 | 36.42050 | -92.45234 | 38981 ft | 530 kts | 111° |
| 2026-05-04 06:28 | 36.39382 | -92.36699 | 38980 ft | 530 kts | 112° |
| 2026-05-04 06:28 | 36.36708 | -92.28167 | 38987 ft | 530 kts | 112° |
| 2026-05-04 06:29 | 36.34029 | -92.19645 | 38973 ft | 530 kts | 112° |
| 2026-05-04 06:29 | 36.31342 | -92.11124 | 38974 ft | 530 kts | 112° |
| 2026-05-04 06:30 | 36.28651 | -92.02616 | 38974 ft | 530 kts | 112° |
| 2026-05-04 06:30 | 36.25972 | -91.94169 | 38976 ft | 530 kts | 112° |
| 2026-05-04 06:31 | 36.23270 | -91.85676 | 38962 ft | 530 kts | 112° |
| 2026-05-04 06:31 | 36.20561 | -91.77186 | 38982 ft | 531 kts | 112° |
| 2026-05-04 06:33 | 36.09503 | -91.43291 | 38985 ft | 530 kts | 114° |
| 2026-05-04 06:34 | 36.06611 | -91.34923 | 38988 ft | 529 kts | 114° |
| 2026-05-04 06:34 | 36.03720 | -91.26555 | 38993 ft | 529 kts | 114° |
| 2026-05-04 06:36 | 35.92172 | -90.93199 | 39003 ft | 529 kts | 114° |
| 2026-05-04 06:37 | 35.89268 | -90.84867 | 39002 ft | 529 kts | 114° |
| 2026-05-04 06:37 | 35.86357 | -90.76538 | 39003 ft | 529 kts | 114° |
| 2026-05-04 06:38 | 35.83442 | -90.68220 | 39019 ft | 529 kts | 114° |
| 2026-05-04 06:40 | 35.71717 | -90.34988 | 39014 ft | 530 kts | 114° |
| 2026-05-04 06:40 | 35.68766 | -90.26678 | 39007 ft | 530 kts | 114° |
| 2026-05-04 06:41 | 35.65830 | -90.18433 | 39007 ft | 530 kts | 114° |
| 2026-05-04 06:41 | 35.62847 | -90.10077 | 39007 ft | 530 kts | 114° |
| 2026-05-04 06:42 | 35.59877 | -90.01780 | 39007 ft | 530 kts | 114° |
| 2026-05-04 06:44 | 35.47981 | -89.68759 | 39019 ft | 530 kts | 114° |
| 2026-05-04 06:44 | 35.44985 | -89.60496 | 39024 ft | 530 kts | 114° |
| 2026-05-04 06:45 | 35.41980 | -89.52231 | 39030 ft | 531 kts | 115° |
| 2026-05-04 06:45 | 35.38970 | -89.43975 | 39032 ft | 531 kts | 115° |
| 2026-05-04 06:46 | 35.35954 | -89.35721 | 39033 ft | 531 kts | 115° |
| 2026-05-04 06:46 | 35.32932 | -89.27473 | 39035 ft | 531 kts | 115° |
| 2026-05-04 06:48 | 35.20804 | -88.94590 | 39045 ft | 531 kts | 115° |
| 2026-05-04 06:50 | 35.09111 | -88.63207 | 39066 ft | 528 kts | 115° |
| 2026-05-04 06:51 | 35.06051 | -88.55046 | 39069 ft | 529 kts | 115° |
| 2026-05-04 06:51 | 35.02986 | -88.46891 | 39073 ft | 529 kts | 115° |
| 2026-05-04 06:52 | 34.99915 | -88.38743 | 39069 ft | 528 kts | 115° |
| 2026-05-04 06:52 | 34.96844 | -88.30614 | 39063 ft | 528 kts | 115° |
| 2026-05-04 06:53 | 34.93764 | -88.22485 | 39068 ft | 528 kts | 115° |
| 2026-05-04 06:53 | 34.90678 | -88.14357 | 39069 ft | 528 kts | 115° |
| 2026-05-04 06:54 | 34.87608 | -88.06293 | 39075 ft | 528 kts | 115° |
| 2026-05-04 06:54 | 34.84515 | -87.98190 | 39077 ft | 527 kts | 115° |
| 2026-05-04 06:55 | 34.81421 | -87.90103 | 39083 ft | 527 kts | 115° |
| 2026-05-04 06:55 | 34.78322 | -87.82024 | 39088 ft | 527 kts | 115° |
| 2026-05-04 06:57 | 34.65879 | -87.49777 | 39090 ft | 526 kts | 116° |
| 2026-05-04 06:58 | 34.63109 | -87.41568 | 39091 ft | 525 kts | 104° |
| 2026-05-04 06:58 | 34.61331 | -87.32964 | 39094 ft | 525 kts | 102° |
| 2026-05-04 06:59 | 34.59747 | -87.24309 | 39098 ft | 525 kts | 101° |
| 2026-05-04 06:59 | 34.58187 | -87.15655 | 39105 ft | 525 kts | 101° |
| 2026-05-04 07:01 | 34.51144 | -86.81290 | 39117 ft | 526 kts | 107° |
| 2026-05-04 07:02 | 34.48937 | -86.72837 | 39102 ft | 526 kts | 107° |
| 2026-05-04 07:02 | 34.46727 | -86.64382 | 39104 ft | 526 kts | 107° |
| 2026-05-04 07:03 | 34.44513 | -86.55934 | 39118 ft | 526 kts | 107° |
| 2026-05-04 07:03 | 34.42293 | -86.47486 | 39078 ft | 526 kts | 107° |
| 2026-05-04 07:04 | 34.40070 | -86.39054 | 39108 ft | 525 kts | 107° |
| 2026-05-04 07:04 | 34.37844 | -86.30638 | 39109 ft | 525 kts | 107° |
| 2026-05-04 07:05 | 34.35628 | -86.22284 | 39113 ft | 525 kts | 107° |
| 2026-05-04 07:05 | 34.33396 | -86.13868 | 39110 ft | 525 kts | 107° |
| 2026-05-04 07:06 | 34.30111 | -86.01181 | 39108 ft | 525 kts | 107° |
| 2026-05-04 07:07 | 34.27924 | -85.92761 | 39108 ft | 524 kts | 107° |
| 2026-05-04 07:08 | 34.20285 | -85.63569 | 37319 ft | 521 kts | 107° |
| 2026-05-04 07:09 | 34.19188 | -85.59403 | 36806 ft | 520 kts | 107° |
| 2026-05-04 07:09 | 34.18086 | -85.55228 | 36040 ft | 525 kts | 107° |
| 2026-05-04 07:09 | 34.16972 | -85.51011 | 35238 ft | 530 kts | 107° |
| 2026-05-04 07:09 | 34.15844 | -85.46745 | 34366 ft | 537 kts | 107° |
| 2026-05-04 07:10 | 34.14700 | -85.42428 | 33409 ft | 543 kts | 107° |
| 2026-05-04 07:10 | 34.13551 | -85.38060 | 32453 ft | 548 kts | 106° |
| 2026-05-04 07:12 | 34.05670 | -85.08097 | 28406 ft | 519 kts | 113° |
| 2026-05-04 07:12 | 34.03885 | -85.04361 | 27867 ft | 512 kts | 129° |
| 2026-05-04 07:12 | 34.01454 | -85.01286 | 27359 ft | 504 kts | 140° |
| 2026-05-04 07:12 | 33.98816 | -84.98538 | 26826 ft | 499 kts | 142° |
| 2026-05-04 07:13 | 33.96175 | -84.95858 | 26305 ft | 494 kts | 142° |
| 2026-05-04 07:13 | 33.93560 | -84.93194 | 25804 ft | 490 kts | 142° |
| 2026-05-04 07:13 | 33.90978 | -84.90547 | 25284 ft | 486 kts | 142° |
| 2026-05-04 07:14 | 33.80902 | -84.80163 | 23297 ft | 467 kts | 141° |
| 2026-05-04 07:14 | 33.78479 | -84.77665 | 22746 ft | 463 kts | 141° |
| 2026-05-04 07:15 | 33.76039 | -84.75087 | 22183 ft | 460 kts | 136° |
| 2026-05-04 07:15 | 33.74125 | -84.72106 | 21643 ft | 457 kts | 118° |
| 2026-05-04 07:15 | 33.73003 | -84.68571 | 21111 ft | 452 kts | 101° |
| 2026-05-04 07:15 | 33.72769 | -84.64847 | 20611 ft | 445 kts | 86° |
| 2026-05-04 07:16 | 33.72927 | -84.61157 | 20111 ft | 440 kts | 85° |
| 2026-05-04 07:16 | 33.73079 | -84.57523 | 19865 ft | 429 kts | 86° |
| 2026-05-04 07:16 | 33.73174 | -84.53988 | 19657 ft | 418 kts | 87° |
| 2026-05-04 07:16 | 33.73229 | -84.50525 | 19320 ft | 411 kts | 88° |
| 2026-05-04 07:17 | 33.73259 | -84.47109 | 18913 ft | 407 kts | 88° |
| 2026-05-04 07:17 | 33.73276 | -84.43722 | 18495 ft | 404 kts | 88° |
| 2026-05-04 07:17 | 33.73285 | -84.40369 | 18020 ft | 400 kts | 88° |
| 2026-05-04 07:17 | 33.73290 | -84.37046 | 17544 ft | 396 kts | 88° |
| 2026-05-04 07:18 | 33.73292 | -84.33756 | 17099 ft | 392 kts | 88° |
| 2026-05-04 07:18 | 33.73293 | -84.30504 | 16652 ft | 387 kts | 88° |
| 2026-05-04 07:18 | 33.73297 | -84.27285 | 16199 ft | 383 kts | 88° |
| 2026-05-04 07:18 | 33.73301 | -84.24097 | 15759 ft | 380 kts | 88° |
| 2026-05-04 07:19 | 33.73303 | -84.20968 | 15554 ft | 369 kts | 88° |
| 2026-05-04 07:19 | 33.73305 | -84.17937 | 15385 ft | 358 kts | 88° |
| 2026-05-04 07:19 | 33.73306 | -84.14992 | 15234 ft | 347 kts | 88° |
| 2026-05-04 07:19 | 33.73308 | -84.12140 | 15083 ft | 337 kts | 88° |
| 2026-05-04 07:20 | 33.73310 | -84.09368 | 14926 ft | 327 kts | 88° |
| 2026-05-04 07:20 | 33.73311 | -84.06664 | 14677 ft | 321 kts | 88° |
| 2026-05-04 07:20 | 33.73311 | -84.03989 | 14316 ft | 320 kts | 88° |
| 2026-05-04 07:20 | 33.73309 | -84.01329 | 14019 ft | 316 kts | 88° |
| 2026-05-04 07:22 | 33.72746 | -83.83406 | 11504 ft | 307 kts | 115° |
| 2026-05-04 07:22 | 33.71418 | -83.81410 | 11144 ft | 308 kts | 140° |
| 2026-05-04 07:23 | 33.69527 | -83.80234 | 10783 ft | 308 kts | 164° |
| 2026-05-04 07:23 | 33.67411 | -83.79965 | 10423 ft | 306 kts | 186° |
| 2026-05-04 07:23 | 33.65319 | -83.80384 | 10078 ft | 304 kts | 197° |
| 2026-05-04 07:23 | 33.63407 | -83.81412 | 9693 ft | 300 kts | 217° |
| 2026-05-04 07:24 | 33.61998 | -83.83154 | 9338 ft | 293 kts | 242° |
| 2026-05-04 07:24 | 33.61375 | -83.85423 | 8974 ft | 285 kts | 269° |
| 2026-05-04 07:24 | 33.61600 | -83.87748 | 8627 ft | 280 kts | 285° |
| 2026-05-04 07:24 | 33.62119 | -83.89984 | 8284 ft | 277 kts | 288° |
| 2026-05-04 07:25 | 33.62679 | -83.92194 | 7931 ft | 276 kts | 288° |
| 2026-05-04 07:26 | 33.64940 | -84.07117 | 6391 ft | 238 kts | 270° |
| 2026-05-04 07:27 | 33.64938 | -84.09084 | 6203 ft | 233 kts | 271° |
| 2026-05-04 07:27 | 33.64961 | -84.11024 | 5947 ft | 232 kts | 271° |
| 2026-05-04 07:27 | 33.64964 | -84.12957 | 5658 ft | 231 kts | 270° |
| 2026-05-04 07:27 | 33.64957 | -84.14874 | 5323 ft | 229 kts | 269° |
| 2026-05-04 07:28 | 33.64958 | -84.16780 | 4979 ft | 228 kts | 269° |
| 2026-05-04 07:28 | 33.64958 | -84.18670 | 4643 ft | 225 kts | 269° |
| 2026-05-04 07:28 | 33.64957 | -84.20536 | 4354 ft | 222 kts | 269° |
| 2026-05-04 07:28 | 33.64957 | -84.22379 | 4042 ft | 218 kts | 269° |
| 2026-05-04 07:29 | 33.64957 | -84.24145 | 3773 ft | 205 kts | 269° |
| 2026-05-04 07:29 | 33.64957 | -84.25809 | 3514 ft | 193 kts | 269° |
| 2026-05-04 07:29 | 33.64957 | -84.27374 | 3254 ft | 183 kts | 269° |
| 2026-05-04 07:29 | 33.64956 | -84.28873 | 3028 ft | 176 kts | 269° |
| 2026-05-04 07:30 | 33.64956 | -84.30301 | 2794 ft | 166 kts | 270° |
| 2026-05-04 07:30 | 33.64956 | -84.31662 | 2569 ft | 161 kts | 270° |
| 2026-05-04 07:30 | 33.64955 | -84.33000 | 2364 ft | 158 kts | 270° |
| 2026-05-04 07:30 | 33.64955 | -84.34270 | 2163 ft | 145 kts | 270° |
| 2026-05-04 07:31 | 33.64955 | -84.35444 | 1975 ft | 138 kts | 270° |
| 2026-05-04 07:31 | 33.64956 | -84.36597 | 1775 ft | 139 kts | 270° |
| 2026-05-04 07:33 | 33.64938 | -84.43139 | 1010 ft | 34 kts | 259° |
| 2026-05-04 07:33 | 33.64846 | -84.43304 | 1010 ft | 14 kts | 192° |
| 2026-05-04 07:33 | 33.64799 | -84.43263 | 1011 ft | 10 kts | 115° |
| 2026-05-04 07:33 | 33.64789 | -84.43153 | 1011 ft | 18 kts | 91° |
| 2026-05-04 07:34 | 33.64789 | -84.42987 | 1010 ft | 21 kts | 89° |
| 2026-05-04 07:34 | 33.64725 | -84.42874 | 1011 ft | 15 kts | 168° |
| 2026-05-04 07:34 | 33.64623 | -84.42848 | 1011 ft | 15 kts | 159° |
| 2026-05-04 07:34 | 33.64530 | -84.42790 | 1010 ft | 16 kts | 152° |
| 2026-05-04 07:35 | 33.64430 | -84.42741 | 1010 ft | 15 kts | 167° |
| 2026-05-04 07:35 | 33.64404 | -84.42710 | 1010 ft | 3 kts | 100° |
| 2026-05-04 07:35 | 33.64402 | -84.42680 | 1010 ft | 4 kts | 93° |
| 2026-05-04 07:35 | 33.64402 | -84.42644 | 1010 ft | 0 kts | 91° |